createdAt,value
2023-01-29T00:01:03.252Z,79.55
2023-01-29T00:04:05.963Z,80.35
2023-01-29T00:07:08.663Z,80.40
2023-01-29T00:10:11.820Z,80.46
2023-01-29T00:13:15.439Z,80.21
2023-01-29T00:16:18.032Z,80.28
2023-01-29T00:19:20.666Z,80.81
2023-01-29T00:22:23.134Z,81.50
2023-01-29T00:25:25.626Z,81.43
2023-01-29T00:28:28.139Z,81.83
2023-01-29T00:31:32.251Z,82.27
2023-01-29T00:34:34.770Z,82.14
2023-01-29T00:37:37.837Z,82.94
2023-01-29T00:41:00.264Z,83.23
2023-01-29T00:44:21.304Z,83.29
2023-01-29T00:47:35.497Z,83.62
2023-01-29T00:50:38.256Z,83.80
2023-01-29T00:53:41.634Z,83.75
2023-01-29T00:56:44.258Z,83.89
2023-01-29T00:59:46.668Z,83.81
2023-01-29T01:03:07.319Z,84.24
2023-01-29T01:06:11.160Z,84.59
2023-01-29T01:09:32.116Z,84.01
2023-01-29T01:12:37.173Z,84.35
2023-01-29T01:15:41.273Z,83.97
2023-01-29T01:18:43.754Z,83.80
2023-01-29T01:21:48.283Z,83.52
2023-01-29T01:24:50.778Z,83.83
2023-01-29T01:27:54.989Z,83.53
2023-01-29T01:30:57.543Z,83.04
2023-01-29T01:34:00.767Z,82.88
2023-01-29T01:37:03.489Z,82.87
2023-01-29T01:40:12.862Z,82.94
2023-01-29T01:43:15.348Z,82.45
2023-01-29T01:46:17.990Z,82.71
2023-01-29T01:49:21.752Z,82.66
2023-01-29T01:52:24.472Z,82.57
2023-01-29T01:55:30.268Z,82.36
2023-01-29T01:59:02.500Z,82.06
2023-01-29T02:02:25.868Z,82.25
2023-01-29T02:05:49.298Z,83.38
2023-01-29T02:09:19.873Z,83.22
2023-01-29T02:12:23.212Z,83.36
2023-01-29T02:15:25.697Z,83.75
2023-01-29T02:18:28.149Z,83.85
2023-01-29T02:21:48.585Z,84.36
2023-01-29T02:25:10.013Z,84.58
2023-01-29T02:28:24.593Z,84.48
2023-01-29T02:31:34.046Z,84.16
2023-01-29T02:35:12.249Z,84.86
2023-01-29T02:38:44.206Z,85.48
2023-01-29T02:41:49.742Z,85.76
2023-01-29T02:45:00.454Z,85.44
2023-01-29T02:48:03.179Z,85.64
2023-01-29T02:51:14.211Z,85.51
2023-01-29T02:54:24.845Z,85.74
2023-01-29T02:57:40.778Z,85.46
2023-01-29T03:00:47.176Z,85.69
2023-01-29T03:03:54.848Z,86.06
2023-01-29T03:07:05.595Z,85.90
2023-01-29T03:10:26.597Z,85.46
2023-01-29T03:13:46.843Z,84.38
2023-01-29T03:16:53.908Z,84.26
2023-01-29T03:19:58.419Z,84.09
2023-01-29T03:23:18.857Z,83.17
2023-01-29T03:26:41.422Z,83.52
2023-01-29T03:30:05.186Z,83.77
2023-01-29T03:33:32.865Z,83.64
2023-01-29T03:36:47.913Z,83.35
2023-01-29T03:39:50.909Z,82.71
2023-01-29T03:42:59.617Z,82.78
2023-01-29T03:46:10.046Z,82.74
2023-01-29T03:49:21.566Z,82.33
2023-01-29T03:52:27.892Z,81.80
2023-01-29T03:56:07.194Z,82.16
2023-01-29T03:59:12.014Z,82.06
2023-01-29T04:03:03.180Z,81.23
2023-01-29T04:06:19.017Z,81.26
2023-01-29T04:09:40.520Z,80.74
2023-01-29T04:12:51.284Z,80.49
2023-01-29T04:15:58.344Z,80.69
2023-01-29T04:19:24.936Z,80.66
2023-01-29T04:22:32.926Z,81.13
2023-01-29T04:25:45.492Z,81.67
2023-01-29T04:29:10.489Z,81.70
2023-01-29T04:32:14.027Z,81.26
2023-01-29T04:35:24.505Z,81.03
2023-01-29T04:39:12.747Z,81.23
2023-01-29T04:42:50.805Z,81.28
2023-01-29T04:46:11.445Z,82.04
2023-01-29T04:49:25.801Z,81.03
2023-01-29T04:52:58.102Z,80.75
2023-01-29T04:56:16.188Z,81.09
2023-01-29T04:59:40.110Z,80.27
2023-01-29T05:02:44.877Z,80.58
2023-01-29T05:05:48.949Z,80.81
2023-01-29T05:08:52.396Z,80.99
2023-01-29T05:11:55.770Z,80.77
2023-01-29T05:15:02.187Z,80.63
2023-01-29T05:18:09.122Z,80.28
2023-01-29T05:21:11.794Z,80.56
2023-01-29T05:24:17.787Z,80.65
2023-01-29T05:27:50.552Z,79.85
2023-01-29T05:30:55.357Z,79.97
2023-01-29T05:33:58.104Z,80.04
2023-01-29T05:37:00.501Z,80.04
2023-01-29T05:40:03.038Z,79.80
2023-01-29T05:43:06.708Z,80.07
2023-01-29T05:46:10.342Z,80.16
2023-01-29T05:49:13.269Z,79.61
2023-01-29T05:52:15.678Z,79.90
2023-01-29T05:55:18.275Z,80.30
2023-01-29T05:58:20.744Z,80.02
2023-01-29T06:01:25.484Z,80.40
2023-01-29T06:04:29.953Z,80.03
2023-01-29T06:07:32.614Z,80.08
2023-01-29T06:10:35.592Z,80.13
2023-01-29T06:13:38.921Z,79.46
2023-01-29T06:16:41.328Z,79.15
2023-01-29T06:19:44.345Z,77.42
2023-01-29T06:22:46.973Z,77.69
2023-01-29T06:25:49.417Z,76.81
2023-01-29T06:28:52.308Z,74.49
2023-01-29T06:31:55.410Z,75.22
2023-01-29T06:34:58.048Z,74.17
2023-01-29T06:38:00.554Z,74.36
2023-01-29T06:41:14.238Z,74.17
2023-01-29T06:44:16.710Z,74.60
2023-01-29T06:47:19.126Z,74.47
2023-01-29T06:50:21.539Z,74.73
2023-01-29T06:53:25.009Z,74.80
2023-01-29T06:56:27.571Z,75.52
2023-01-29T06:59:30.133Z,75.62
2023-01-29T07:02:32.694Z,75.53
2023-01-29T07:05:35.489Z,74.18
2023-01-29T07:08:39.752Z,73.94
2023-01-29T07:11:42.352Z,72.42
2023-01-29T07:14:44.789Z,71.39
2023-01-29T07:18:00.717Z,71.71
2023-01-29T07:21:07.604Z,71.48
2023-01-29T07:24:10.289Z,71.49
2023-01-29T07:27:12.794Z,72.11
2023-01-29T07:30:16.332Z,72.22
2023-01-29T07:33:19.307Z,72.07
2023-01-29T07:36:22.366Z,71.68
2023-01-29T07:39:25.022Z,71.21
2023-01-29T07:42:27.819Z,70.91
2023-01-29T07:45:31.478Z,71.03
2023-01-29T07:48:34.035Z,71.27
2023-01-29T07:51:36.511Z,70.97
2023-01-29T07:54:38.979Z,71.08
2023-01-29T07:57:42.048Z,71.01
2023-01-29T08:00:45.217Z,71.05
2023-01-29T08:03:49.431Z,70.41
2023-01-29T08:06:53.011Z,70.67
2023-01-29T08:09:55.991Z,70.86
2023-01-29T08:13:01.329Z,69.98
2023-01-29T08:16:04.832Z,70.56
2023-01-29T08:19:07.264Z,70.43
2023-01-29T08:22:09.975Z,70.22
2023-01-29T08:25:13.642Z,69.87
2023-01-29T08:28:16.120Z,69.98
2023-01-29T08:31:23.891Z,70.40
2023-01-29T08:34:26.949Z,70.30
2023-01-29T08:37:29.421Z,69.72
2023-01-29T08:40:34.780Z,69.51
2023-01-29T08:43:37.335Z,68.80
2023-01-29T08:46:40.837Z,68.44
2023-01-29T08:49:43.773Z,68.15
2023-01-29T08:52:46.461Z,68.07
2023-01-29T08:55:48.959Z,68.74
2023-01-29T08:58:51.440Z,68.31
2023-01-29T09:01:53.915Z,68.07
2023-01-29T09:04:56.386Z,68.53
2023-01-29T09:07:59.045Z,68.23
2023-01-29T09:11:02.013Z,68.09
2023-01-29T09:14:04.710Z,68.01
2023-01-29T09:17:07.115Z,68.20
2023-01-29T09:20:10.376Z,68.16
2023-01-29T09:23:14.061Z,68.33
2023-01-29T09:26:16.656Z,68.61
2023-01-29T09:29:19.215Z,68.26
2023-01-29T09:32:43.948Z,68.13
2023-01-29T09:35:46.906Z,67.83
2023-01-29T09:38:49.390Z,67.85
2023-01-29T09:41:56.292Z,67.38
2023-01-29T09:45:03.860Z,66.84
2023-01-29T09:48:12.250Z,66.26
2023-01-29T09:51:50.508Z,65.93
2023-01-29T09:55:11.164Z,66.07
2023-01-29T09:58:27.941Z,64.90
2023-01-29T10:01:38.305Z,64.04
2023-01-29T10:05:01.568Z,63.52
2023-01-29T10:08:06.844Z,64.21
2023-01-29T10:11:28.020Z,63.89
2023-01-29T10:14:47.313Z,64.30
2023-01-29T10:17:55.660Z,63.75
2023-01-29T10:21:25.819Z,64.23
2023-01-29T10:24:34.274Z,63.90
2023-01-29T10:27:40.438Z,63.66
2023-01-29T10:30:54.853Z,63.53
2023-01-29T10:34:07.437Z,63.03
2023-01-29T10:37:18.661Z,62.17
2023-01-29T10:40:42.863Z,62.04
2023-01-29T10:44:07.513Z,62.46
2023-01-29T10:47:35.116Z,62.45
2023-01-29T10:51:12.134Z,62.05
2023-01-29T10:54:33.851Z,61.69
2023-01-29T10:57:54.985Z,61.12
2023-01-29T11:00:58.709Z,60.72
2023-01-29T11:04:03.934Z,60.44
2023-01-29T11:07:06.735Z,59.41
2023-01-29T11:10:16.511Z,59.45
2023-01-29T11:13:19.797Z,59.48
2023-01-29T11:16:22.241Z,58.90
2023-01-29T11:19:40.174Z,58.89
2023-01-29T11:22:55.691Z,59.11
2023-01-29T11:25:59.989Z,59.05
2023-01-29T11:29:02.677Z,58.90
2023-01-29T11:32:08.427Z,58.80
2023-01-29T11:35:16.862Z,58.79
2023-01-29T11:38:29.747Z,58.30
2023-01-29T11:41:43.818Z,58.77
2023-01-29T11:44:46.799Z,58.77
2023-01-29T11:47:53.049Z,58.80
2023-01-29T11:51:00.739Z,56.93
2023-01-29T11:54:05.496Z,56.76
2023-01-29T11:57:23.756Z,57.51
2023-01-29T12:00:28.771Z,56.82
2023-01-29T12:03:43.828Z,56.78
2023-01-29T12:06:50.619Z,56.67
2023-01-29T12:09:58.793Z,56.70
2023-01-29T12:13:12.046Z,55.74
2023-01-29T12:16:25.687Z,55.76
2023-01-29T12:19:53.361Z,55.36
2023-01-29T12:23:11.726Z,56.35
2023-01-29T12:26:50.849Z,55.38
2023-01-29T12:30:18.642Z,55.91
2023-01-29T12:33:38.797Z,54.65
2023-01-29T12:37:11.547Z,54.48
2023-01-29T12:40:16.924Z,54.85
2023-01-29T12:43:47.919Z,53.58
2023-01-29T12:46:56.960Z,52.92
2023-01-29T12:50:06.864Z,52.98
2023-01-29T12:53:37.925Z,52.82
2023-01-29T12:56:47.281Z,51.42
2023-01-29T12:59:56.637Z,52.22
2023-01-29T13:03:18.621Z,51.85
2023-01-29T13:06:46.535Z,53.38
2023-01-29T13:09:57.960Z,54.01
2023-01-29T13:13:29.306Z,52.38
2023-01-29T13:16:40.784Z,51.93
2023-01-29T13:19:47.110Z,51.89
2023-01-29T13:22:51.901Z,51.13
2023-01-29T13:25:55.099Z,50.84
2023-01-29T13:28:58.148Z,52.17
2023-01-29T13:32:03.424Z,52.56
2023-01-29T13:35:14.182Z,52.53
2023-01-29T13:38:28.214Z,51.93
2023-01-29T13:41:37.015Z,52.21
2023-01-29T13:44:41.030Z,52.40
2023-01-29T13:47:43.918Z,45.32
2023-01-29T13:50:47.585Z,37.90
2023-01-29T13:53:57.315Z,37.55
2023-01-29T13:57:01.467Z,35.05
2023-01-29T14:00:06.071Z,34.25
2023-01-29T14:03:11.887Z,33.33
2023-01-29T14:06:36.773Z,34.11
2023-01-29T14:09:39.436Z,40.06
2023-01-29T14:12:43.240Z,45.32
2023-01-29T14:16:06.901Z,45.78
2023-01-29T14:19:18.548Z,40.66
2023-01-29T14:22:27.089Z,40.30
2023-01-29T14:25:38.932Z,37.58
2023-01-29T14:28:41.438Z,35.85
2023-01-29T14:31:49.411Z,40.67
2023-01-29T14:34:55.823Z,44.39
2023-01-29T14:38:02.917Z,48.15
2023-01-29T14:41:16.352Z,45.09
2023-01-29T14:44:47.088Z,42.77
2023-01-29T14:47:49.456Z,41.09
2023-01-29T14:50:56.014Z,39.41
2023-01-29T14:54:22.955Z,42.26
2023-01-29T14:57:26.924Z,47.97
2023-01-29T15:00:34.486Z,49.48
2023-01-29T15:03:45.982Z,47.67
2023-01-29T15:06:55.269Z,51.02
2023-01-29T15:10:21.385Z,51.34
2023-01-29T15:13:36.023Z,53.10
2023-01-29T15:16:48.632Z,53.79
2023-01-29T15:19:51.484Z,54.92
2023-01-29T15:22:54.091Z,55.55
2023-01-29T15:26:03.221Z,56.57
2023-01-29T15:29:06.283Z,56.55
2023-01-29T15:32:17.226Z,57.96
2023-01-29T15:35:37.802Z,58.71
2023-01-29T15:38:40.643Z,59.20
2023-01-29T15:41:45.071Z,59.61
2023-01-29T15:44:48.142Z,60.23
2023-01-29T15:47:51.616Z,60.94
2023-01-29T15:50:55.387Z,61.19
2023-01-29T15:54:01.395Z,61.20
2023-01-29T15:57:04.212Z,61.61
2023-01-29T16:00:20.026Z,61.65
2023-01-29T16:03:24.958Z,62.33
2023-01-29T16:06:30.220Z,62.79
2023-01-29T16:09:33.829Z,62.55
2023-01-29T16:12:37.645Z,62.20
2023-01-29T16:15:55.431Z,62.44
2023-01-29T16:19:00.709Z,63.00
2023-01-29T16:22:06.978Z,63.29
2023-01-29T16:25:14.758Z,63.37
2023-01-29T16:28:18.568Z,62.43
2023-01-29T16:31:26.173Z,62.61
2023-01-29T16:34:43.473Z,62.66
2023-01-29T16:37:51.235Z,62.58
2023-01-29T16:41:12.271Z,62.88
2023-01-29T16:44:20.978Z,63.29
2023-01-29T16:47:38.315Z,63.65
2023-01-29T16:50:54.325Z,63.59
2023-01-29T16:54:06.384Z,63.63
2023-01-29T16:57:17.243Z,63.97
2023-01-29T17:00:29.647Z,63.69
2023-01-29T17:03:34.213Z,64.13
2023-01-29T17:06:37.297Z,64.23
2023-01-29T17:09:41.238Z,64.72
2023-01-29T17:12:53.840Z,64.47
2023-01-29T17:16:13.960Z,64.17
2023-01-29T17:19:22.020Z,65.12
2023-01-29T17:22:24.955Z,64.30
2023-01-29T17:25:29.016Z,64.56
2023-01-29T17:28:31.683Z,64.72
2023-01-29T17:31:34.549Z,65.45
2023-01-29T17:34:37.507Z,65.69
2023-01-29T17:37:40.401Z,65.89
2023-01-29T17:40:48.768Z,65.85
2023-01-29T17:43:52.069Z,66.33
2023-01-29T17:46:54.861Z,66.36
2023-01-29T17:49:58.618Z,65.83
2023-01-29T17:53:02.768Z,65.92
2023-01-29T17:56:06.124Z,65.95
2023-01-29T17:59:16.935Z,66.96
2023-01-29T18:02:29.420Z,66.41
2023-01-29T18:05:32.799Z,67.02
2023-01-29T18:08:38.407Z,66.76
2023-01-29T18:11:42.337Z,66.95
2023-01-29T18:14:45.265Z,67.09
2023-01-29T18:17:48.580Z,67.35
2023-01-29T18:20:52.105Z,67.89
2023-01-29T18:23:54.819Z,68.04
2023-01-29T18:26:57.549Z,67.99
2023-01-29T18:30:00.745Z,68.48
2023-01-29T18:33:03.442Z,68.61
2023-01-29T18:36:06.795Z,68.85
2023-01-29T18:39:10.762Z,68.98
2023-01-29T18:42:13.593Z,69.29
2023-01-29T18:45:17.309Z,69.58
2023-01-29T18:48:20.329Z,69.83
2023-01-29T18:51:22.881Z,69.73
2023-01-29T18:54:27.040Z,69.69
2023-01-29T18:58:25.004Z,69.95
2023-01-29T19:00:52.960Z,70.20
2023-01-29T19:03:59.244Z,69.94
2023-01-29T19:07:01.805Z,70.16
2023-01-29T19:10:12.704Z,70.82
2023-01-29T19:13:16.198Z,70.28
2023-01-29T19:16:19.158Z,69.48
2023-01-29T19:19:21.683Z,69.40
2023-01-29T19:22:24.488Z,69.59
2023-01-29T19:25:27.317Z,70.28
2023-01-29T19:28:31.721Z,69.92
2023-01-29T19:31:34.535Z,69.90
2023-01-29T19:34:37.370Z,69.41
2023-01-29T19:37:40.060Z,69.78
2023-01-29T19:40:43.244Z,69.96
2023-01-29T19:43:48.216Z,69.78
2023-01-29T19:46:51.015Z,69.69
2023-01-29T19:49:53.772Z,69.99
2023-01-29T19:52:56.362Z,70.26
2023-01-29T19:56:00.098Z,70.05
2023-01-29T19:59:02.714Z,70.34
2023-01-29T20:02:05.492Z,70.13
2023-01-29T20:05:11.264Z,70.29
2023-01-29T20:08:13.777Z,69.93
2023-01-29T20:11:19.365Z,69.92
2023-01-29T20:14:22.269Z,70.15
2023-01-29T20:17:25.003Z,69.92
2023-01-29T20:20:31.051Z,70.39
2023-01-29T20:23:38.424Z,70.34
2023-01-29T20:26:41.545Z,70.44
2023-01-29T20:29:46.667Z,70.67
2023-01-29T20:32:49.423Z,70.69
2023-01-29T20:35:58.896Z,71.39
2023-01-29T20:39:01.987Z,71.74
2023-01-29T20:42:04.766Z,71.23
2023-01-29T20:45:07.970Z,71.12
2023-01-29T20:48:10.728Z,71.67
2023-01-29T20:51:16.373Z,71.73
2023-01-29T20:54:18.815Z,72.39
2023-01-29T20:57:21.896Z,71.17
2023-01-29T21:00:24.601Z,71.48
2023-01-29T21:03:27.508Z,71.31
2023-01-29T21:06:30.169Z,71.61
2023-01-29T21:09:33.005Z,71.21
2023-01-29T21:12:35.675Z,71.94
2023-01-29T21:15:38.709Z,71.98
2023-01-29T21:18:41.350Z,71.76
2023-01-29T21:21:44.123Z,71.64
2023-01-29T21:24:47.101Z,71.46
2023-01-29T21:27:50.839Z,71.99
2023-01-29T21:31:03.893Z,71.81
2023-01-29T21:34:07.254Z,72.18
2023-01-29T21:37:09.739Z,72.86
2023-01-29T21:40:13.236Z,72.34
2023-01-29T21:43:16.223Z,72.36
2023-01-29T21:46:18.722Z,72.82
2023-01-29T21:49:21.519Z,72.77
2023-01-29T21:52:24.022Z,72.86
2023-01-29T21:55:26.781Z,72.38
2023-01-29T21:58:30.017Z,72.50
2023-01-29T22:01:37.617Z,72.17
2023-01-29T22:04:42.421Z,72.46
2023-01-29T22:07:44.908Z,71.63
2023-01-29T22:10:47.507Z,71.65
2023-01-29T22:13:50.144Z,71.53
2023-01-29T22:16:52.643Z,71.68
2023-01-29T22:19:55.049Z,71.12
2023-01-29T22:22:59.360Z,70.62
2023-01-29T22:26:03.814Z,70.85
2023-01-29T22:29:06.239Z,70.48
2023-01-29T22:32:10.621Z,70.22
2023-01-29T22:35:13.241Z,70.52
2023-01-29T22:38:15.759Z,69.94
2023-01-29T22:41:18.257Z,69.92
2023-01-29T22:44:20.881Z,69.79
2023-01-29T22:47:23.335Z,69.98
2023-01-29T22:50:25.799Z,70.00
2023-01-29T22:53:28.241Z,69.99
2023-01-29T22:56:31.201Z,69.80
2023-01-29T22:59:34.951Z,69.72
2023-01-29T23:02:37.603Z,70.45
2023-01-29T23:05:40.125Z,70.38
2023-01-29T23:08:43.080Z,69.46
2023-01-29T23:11:45.460Z,70.06
2023-01-29T23:14:47.959Z,69.73
2023-01-29T23:17:50.409Z,69.98
2023-01-29T23:20:57.359Z,70.29
2023-01-29T23:24:01.060Z,70.66
2023-01-29T23:27:15.686Z,70.82
2023-01-29T23:30:18.527Z,70.81
2023-01-29T23:33:21.392Z,70.49
2023-01-29T23:36:23.945Z,70.58
2023-01-29T23:39:26.501Z,70.76
2023-01-29T23:42:28.988Z,71.33
2023-01-29T23:45:31.467Z,71.24
2023-01-29T23:48:34.118Z,71.38
2023-01-29T23:51:36.686Z,71.89
2023-01-29T23:54:40.269Z,70.88
2023-01-29T23:57:42.715Z,72.30
